Aérodrome :
LOGIN :

S'inscrire | Disclaimer

   EN    FR    IT 

 










Légende :    VFR   VFR Marginal   IFR   IFR Intensif   IFR Très Intensif
Visi : 
Plafond : 
>= 8 km
>= 3000ft
5 à 8 km
1000 à 3000 ft
1500m à 5 km
500 à 1000 ft
800 à 1500m
200 à 500 ft
< 800m
< 200 ft
Symboles :   Orages  Brouillard  Fortes neiges  Fortes précipitations  Vent > 20 kt
SIGMETs :   Divers  Orages  Givrage  Turbulence  Onde Orograph.  Cendres Volcan.






- Altitude de l'aérodrome : 204 ft
- Code IATA : AGF


LFBA - Agen

DERNIER METAR :
  • 050800Z AUTO 26004KT 200V330 9999 BKN014 OVC100 20/17 Q1015 BECMG BKN030

METARs EXPIRÉS :
  • 050730Z AUTO VRB03KT 9999 BKN009 BKN013 OVC021 19/17 Q1015 TEMPO 4000 -RA BECMG BKN030
  • 050700Z AUTO VRB02KT 9999 FEW008 OVC018 18/17 Q1015 TEMPO 4000 -RA BKN014 OVC030
  • 050630Z AUTO VRB02KT 9999 FEW020/// BKN026/// BKN043/// ///TCU 18/17 Q1015 TEMPO 4000 -RA BKN014 OVC030
  • 050600Z AUTO VRB02KT 9999 RA FEW025/// SCT062/// BKN094/// ///TCU 17/16 Q1015 TEMPO 4000 -RA BKN014 OVC030
  • 050530Z AUTO VRB02KT CAVOK 17/16 Q1015
  • 050500Z AUTO VRB02KT CAVOK 17/16 Q1015

TAF AMD TAF LFBA
Valide du 05 à 07h jusqu'au 05 à 15h UTC


050740Z 0507/0515 27005KT 9999 BKN009 OVC020
BECMG 0508/0510 BKN030



MET'MAP, la Météo Aéronautique d'un coup d'oeil ! - Copyright ORBIFLY Décembre 2007 - Disclaimer

ORBIFLY MET'MAP TEAM :

Programmation & Développement : Alexandra Zaïnal
Sur une idée originale de : Baudouin d'Aumeries
Assistance à la programmation : Marc-Olivier Méhu
Soutien technique & logistique : Manuel Goepfert

Contact : metmap@orbifly.com




SOURCES & CREDITS :

   NOAA